sensor_id;sensor_type;location;lat;lon;timestamp;temperature;humidity
10213;DHT22;5150;51.400;6.692;2022-12-18T00:01:28;-5.00;99.90
10213;DHT22;5150;51.400;6.692;2022-12-18T00:04:52;-5.10;99.90
10213;DHT22;5150;51.400;6.692;2022-12-18T00:08:18;-5.00;99.90
10213;DHT22;5150;51.400;6.692;2022-12-18T00:11:41;-5.00;99.90
10213;DHT22;5150;51.400;6.692;2022-12-18T00:15:05;-5.10;99.90
10213;DHT22;5150;51.400;6.692;2022-12-18T00:18:29;-5.00;99.90
10213;DHT22;5150;51.400;6.692;2022-12-18T00:21:53;-4.90;99.90
10213;DHT22;5150;51.400;6.692;2022-12-18T00:25:16;-4.90;99.90
10213;DHT22;5150;51.400;6.692;2022-12-18T00:28:39;-4.80;99.90
10213;DHT22;5150;51.400;6.692;2022-12-18T00:32:02;-4.50;99.90
10213;DHT22;5150;51.400;6.692;2022-12-18T00:35:28;-4.40;99.90
10213;DHT22;5150;51.400;6.692;2022-12-18T00:38:53;-4.30;99.90
10213;DHT22;5150;51.400;6.692;2022-12-18T00:42:16;-4.50;99.90
10213;DHT22;5150;51.400;6.692;2022-12-18T00:45:56;-4.70;99.90
10213;DHT22;5150;51.400;6.692;2022-12-18T00:49:23;-4.70;99.90
10213;DHT22;5150;51.400;6.692;2022-12-18T00:52:47;-4.90;99.90
10213;DHT22;5150;51.400;6.692;2022-12-18T00:56:11;-4.90;99.90
10213;DHT22;5150;51.400;6.692;2022-12-18T00:59:34;-5.00;99.90
10213;DHT22;5150;51.400;6.692;2022-12-18T01:02:57;-4.90;99.90
10213;DHT22;5150;51.400;6.692;2022-12-18T01:06:21;-4.80;99.90
10213;DHT22;5150;51.400;6.692;2022-12-18T01:09:45;-4.70;99.90
10213;DHT22;5150;51.400;6.692;2022-12-18T01:13:08;-4.60;99.90
10213;DHT22;5150;51.400;6.692;2022-12-18T01:16:31;-4.50;99.90
10213;DHT22;5150;51.400;6.692;2022-12-18T01:19:57;-4.20;99.90
10213;DHT22;5150;51.400;6.692;2022-12-18T01:23:20;-4.10;99.90
10213;DHT22;5150;51.400;6.692;2022-12-18T01:26:44;-4.10;99.90
10213;DHT22;5150;51.400;6.692;2022-12-18T01:30:09;-4.20;99.90
10213;DHT22;5150;51.400;6.692;2022-12-18T01:33:32;-4.20;99.90
10213;DHT22;5150;51.400;6.692;2022-12-18T01:36:56;-4.20;99.90
10213;DHT22;5150;51.400;6.692;2022-12-18T01:40:19;-4.30;99.90
10213;DHT22;5150;51.400;6.692;2022-12-18T01:43:49;-4.20;99.90
10213;DHT22;5150;51.400;6.692;2022-12-18T01:47:15;-4.20;99.90
10213;DHT22;5150;51.400;6.692;2022-12-18T01:50:40;-4.20;99.90
10213;DHT22;5150;51.400;6.692;2022-12-18T01:54:04;-4.40;99.90
10213;DHT22;5150;51.400;6.692;2022-12-18T01:57:28;-4.50;99.90
10213;DHT22;5150;51.400;6.692;2022-12-18T02:00:54;-4.40;99.90
10213;DHT22;5150;51.400;6.692;2022-12-18T02:04:20;-4.30;99.90
10213;DHT22;5150;51.400;6.692;2022-12-18T02:07:49;-4.40;99.90
10213;DHT22;5150;51.400;6.692;2022-12-18T02:11:20;-4.40;99.90
10213;DHT22;5150;51.400;6.692;2022-12-18T02:14:55;-4.40;99.90
10213;DHT22;5150;51.400;6.692;2022-12-18T02:18:25;-4.30;99.90
10213;DHT22;5150;51.400;6.692;2022-12-18T02:21:56;-4.30;99.90
10213;DHT22;5150;51.400;6.692;2022-12-18T02:25:33;-4.40;99.90
10213;DHT22;5150;51.400;6.692;2022-12-18T02:29:03;-4.40;99.90
10213;DHT22;5150;51.400;6.692;2022-12-18T02:32:34;-4.30;99.90
10213;DHT22;5150;51.400;6.692;2022-12-18T02:35:59;-4.20;99.90
10213;DHT22;5150;51.400;6.692;2022-12-18T02:39:25;-4.20;99.90
10213;DHT22;5150;51.400;6.692;2022-12-18T02:42:52;-4.10;99.90
10213;DHT22;5150;51.400;6.692;2022-12-18T02:46:31;-4.10;99.90
10213;DHT22;5150;51.400;6.692;2022-12-18T02:50:07;-4.20;99.90
10213;DHT22;5150;51.400;6.692;2022-12-18T02:53:37;-4.30;99.90
10213;DHT22;5150;51.400;6.692;2022-12-18T02:57:13;-4.60;99.90
10213;DHT22;5150;51.400;6.692;2022-12-18T03:00:42;-4.90;99.90
10213;DHT22;5150;51.400;6.692;2022-12-18T03:04:11;-4.90;99.90
10213;DHT22;5150;51.400;6.692;2022-12-18T03:07:39;-4.60;99.90
10213;DHT22;5150;51.400;6.692;2022-12-18T03:11:08;-4.40;99.90
10213;DHT22;5150;51.400;6.692;2022-12-18T03:14:33;-4.10;99.90
10213;DHT22;5150;51.400;6.692;2022-12-18T03:17:59;-4.00;99.90
10213;DHT22;5150;51.400;6.692;2022-12-18T03:21:29;-4.00;99.90
10213;DHT22;5150;51.400;6.692;2022-12-18T03:24:56;-3.90;99.90
10213;DHT22;5150;51.400;6.692;2022-12-18T03:28:21;-3.80;99.90
10213;DHT22;5150;51.400;6.692;2022-12-18T03:31:55;-3.90;99.90
10213;DHT22;5150;51.400;6.692;2022-12-18T03:35:27;-3.80;99.90
10213;DHT22;5150;51.400;6.692;2022-12-18T03:38:53;-3.80;99.90
10213;DHT22;5150;51.400;6.692;2022-12-18T03:42:31;-3.80;99.90
10213;DHT22;5150;51.400;6.692;2022-12-18T03:46:06;-3.80;99.90
10213;DHT22;5150;51.400;6.692;2022-12-18T03:49:35;-3.80;99.90
10213;DHT22;5150;51.400;6.692;2022-12-18T03:53:06;-3.80;99.90
10213;DHT22;5150;51.400;6.692;2022-12-18T03:56:38;-3.70;99.90
10213;DHT22;5150;51.400;6.692;2022-12-18T04:00:07;-3.70;99.90
10213;DHT22;5150;51.400;6.692;2022-12-18T04:03:37;-3.60;99.90
10213;DHT22;5150;51.400;6.692;2022-12-18T04:07:02;-3.60;99.90
10213;DHT22;5150;51.400;6.692;2022-12-18T04:10:28;-3.60;99.90
10213;DHT22;5150;51.400;6.692;2022-12-18T04:13:57;-3.50;99.90
10213;DHT22;5150;51.400;6.692;2022-12-18T04:17:20;-3.50;99.90
10213;DHT22;5150;51.400;6.692;2022-12-18T04:20:44;-3.60;99.90
10213;DHT22;5150;51.400;6.692;2022-12-18T04:24:07;-3.50;99.90
10213;DHT22;5150;51.400;6.692;2022-12-18T04:27:35;-3.60;99.90
10213;DHT22;5150;51.400;6.692;2022-12-18T04:31:01;-3.70;99.90
10213;DHT22;5150;51.400;6.692;2022-12-18T04:34:24;-3.80;99.90
10213;DHT22;5150;51.400;6.692;2022-12-18T04:37:48;-3.80;99.90
10213;DHT22;5150;51.400;6.692;2022-12-18T04:41:15;-3.80;99.90
10213;DHT22;5150;51.400;6.692;2022-12-18T04:44:41;-3.70;99.90
10213;DHT22;5150;51.400;6.692;2022-12-18T04:48:05;-3.80;99.90
10213;DHT22;5150;51.400;6.692;2022-12-18T04:51:29;-3.70;99.90
10213;DHT22;5150;51.400;6.692;2022-12-18T04:54:52;-3.70;99.90
10213;DHT22;5150;51.400;6.692;2022-12-18T04:58:15;-3.80;99.90
10213;DHT22;5150;51.400;6.692;2022-12-18T05:01:38;-3.90;99.90
10213;DHT22;5150;51.400;6.692;2022-12-18T05:05:04;-4.00;99.90
10213;DHT22;5150;51.400;6.692;2022-12-18T05:08:27;-4.00;99.90
10213;DHT22;5150;51.400;6.692;2022-12-18T05:11:50;-3.90;99.90
10213;DHT22;5150;51.400;6.692;2022-12-18T05:15:13;-4.00;99.90
10213;DHT22;5150;51.400;6.692;2022-12-18T05:18:37;-3.90;99.90
10213;DHT22;5150;51.400;6.692;2022-12-18T05:22:02;-3.80;99.90
10213;DHT22;5150;51.400;6.692;2022-12-18T05:25:25;-3.90;99.90
10213;DHT22;5150;51.400;6.692;2022-12-18T05:28:48;-4.00;99.90
10213;DHT22;5150;51.400;6.692;2022-12-18T05:32:11;-4.10;99.90
10213;DHT22;5150;51.400;6.692;2022-12-18T05:35:34;-4.10;99.90
10213;DHT22;5150;51.400;6.692;2022-12-18T05:38:59;-4.10;99.90
10213;DHT22;5150;51.400;6.692;2022-12-18T05:42:22;-4.00;99.90
10213;DHT22;5150;51.400;6.692;2022-12-18T05:45:46;-4.00;99.90
10213;DHT22;5150;51.400;6.692;2022-12-18T05:49:09;-3.90;99.90
10213;DHT22;5150;51.400;6.692;2022-12-18T05:52:32;-3.80;99.90
10213;DHT22;5150;51.400;6.692;2022-12-18T05:56:00;-3.90;99.90
10213;DHT22;5150;51.400;6.692;2022-12-18T05:59:23;-3.90;99.90
10213;DHT22;5150;51.400;6.692;2022-12-18T06:02:46;-4.00;99.90
10213;DHT22;5150;51.400;6.692;2022-12-18T06:06:14;-4.30;99.90
10213;DHT22;5150;51.400;6.692;2022-12-18T06:09:37;-4.50;99.90
10213;DHT22;5150;51.400;6.692;2022-12-18T06:13:02;-4.50;99.90
10213;DHT22;5150;51.400;6.692;2022-12-18T06:16:26;-4.60;99.90
10213;DHT22;5150;51.400;6.692;2022-12-18T06:19:49;-4.70;99.90
10213;DHT22;5150;51.400;6.692;2022-12-18T06:23:12;-4.80;99.90
10213;DHT22;5150;51.400;6.692;2022-12-18T06:26:37;-4.90;99.90
10213;DHT22;5150;51.400;6.692;2022-12-18T06:30:02;-5.10;99.90
10213;DHT22;5150;51.400;6.692;2022-12-18T06:33:27;-5.10;99.90
10213;DHT22;5150;51.400;6.692;2022-12-18T06:36:50;-4.90;99.90
10213;DHT22;5150;51.400;6.692;2022-12-18T06:40:14;-4.70;99.90
10213;DHT22;5150;51.400;6.692;2022-12-18T06:43:37;-4.40;99.90
10213;DHT22;5150;51.400;6.692;2022-12-18T06:47:02;-4.10;99.90
10213;DHT22;5150;51.400;6.692;2022-12-18T06:50:25;-3.90;99.90
10213;DHT22;5150;51.400;6.692;2022-12-18T06:53:49;-3.80;99.90
10213;DHT22;5150;51.400;6.692;2022-12-18T06:57:12;-3.80;99.90
10213;DHT22;5150;51.400;6.692;2022-12-18T07:00:35;-3.80;99.90
10213;DHT22;5150;51.400;6.692;2022-12-18T07:04:00;-3.80;99.90
10213;DHT22;5150;51.400;6.692;2022-12-18T07:07:23;-3.90;99.90
10213;DHT22;5150;51.400;6.692;2022-12-18T07:10:46;-3.90;99.90
10213;DHT22;5150;51.400;6.692;2022-12-18T07:14:16;-3.90;99.90
10213;DHT22;5150;51.400;6.692;2022-12-18T07:17:39;-3.90;99.90
10213;DHT22;5150;51.400;6.692;2022-12-18T07:21:04;-3.90;99.90
10213;DHT22;5150;51.400;6.692;2022-12-18T07:24:28;-3.90;99.90
10213;DHT22;5150;51.400;6.692;2022-12-18T07:27:51;-3.90;99.90
10213;DHT22;5150;51.400;6.692;2022-12-18T07:31:16;-3.90;99.90
10213;DHT22;5150;51.400;6.692;2022-12-18T07:34:39;-4.00;99.90
10213;DHT22;5150;51.400;6.692;2022-12-18T07:38:04;-3.90;99.90
10213;DHT22;5150;51.400;6.692;2022-12-18T07:41:27;-3.80;99.90
10213;DHT22;5150;51.400;6.692;2022-12-18T07:44:50;-3.70;99.90
10213;DHT22;5150;51.400;6.692;2022-12-18T07:48:16;-3.60;99.90
10213;DHT22;5150;51.400;6.692;2022-12-18T07:51:39;-3.60;99.90
10213;DHT22;5150;51.400;6.692;2022-12-18T07:55:04;-3.50;99.90
10213;DHT22;5150;51.400;6.692;2022-12-18T07:58:28;-3.40;99.90
10213;DHT22;5150;51.400;6.692;2022-12-18T08:01:51;-3.30;99.90
10213;DHT22;5150;51.400;6.692;2022-12-18T08:05:17;-3.10;99.90
10213;DHT22;5150;51.400;6.692;2022-12-18T08:08:40;-3.10;99.90
10213;DHT22;5150;51.400;6.692;2022-12-18T08:12:08;-3.00;99.90
10213;DHT22;5150;51.400;6.692;2022-12-18T08:15:31;-2.90;99.90
10213;DHT22;5150;51.400;6.692;2022-12-18T08:18:54;-2.80;99.90
10213;DHT22;5150;51.400;6.692;2022-12-18T08:22:17;-2.80;99.90
10213;DHT22;5150;51.400;6.692;2022-12-18T08:25:40;-2.70;99.90
10213;DHT22;5150;51.400;6.692;2022-12-18T08:29:04;-2.70;99.90
10213;DHT22;5150;51.400;6.692;2022-12-18T08:32:27;-2.50;99.90
10213;DHT22;5150;51.400;6.692;2022-12-18T08:35:50;-2.50;99.90
10213;DHT22;5150;51.400;6.692;2022-12-18T08:39:13;-2.30;99.90
10213;DHT22;5150;51.400;6.692;2022-12-18T08:42:36;-2.20;99.90
10213;DHT22;5150;51.400;6.692;2022-12-18T08:46:19;-2.00;99.90
10213;DHT22;5150;51.400;6.692;2022-12-18T08:49:43;-1.80;99.90
10213;DHT22;5150;51.400;6.692;2022-12-18T08:53:06;-1.70;99.90
10213;DHT22;5150;51.400;6.692;2022-12-18T08:56:29;-1.50;99.90
10213;DHT22;5150;51.400;6.692;2022-12-18T08:59:52;-1.30;99.90
10213;DHT22;5150;51.400;6.692;2022-12-18T09:03:18;-1.20;99.90
10213;DHT22;5150;51.400;6.692;2022-12-18T09:06:41;-1.00;99.90
10213;DHT22;5150;51.400;6.692;2022-12-18T09:10:06;-0.40;99.90
10213;DHT22;5150;51.400;6.692;2022-12-18T09:13:29;0.10;99.90
10213;DHT22;5150;51.400;6.692;2022-12-18T09:16:51;0.20;99.90
10213;DHT22;5150;51.400;6.692;2022-12-18T09:20:16;0.50;99.90
10213;DHT22;5150;51.400;6.692;2022-12-18T09:23:39;0.90;99.90
10213;DHT22;5150;51.400;6.692;2022-12-18T09:27:02;1.00;99.90
10213;DHT22;5150;51.400;6.692;2022-12-18T09:30:26;2.40;99.90
10213;DHT22;5150;51.400;6.692;2022-12-18T09:33:49;3.30;99.90
10213;DHT22;5150;51.400;6.692;2022-12-18T09:37:13;2.90;99.90
10213;DHT22;5150;51.400;6.692;2022-12-18T09:40:41;3.00;99.90
10213;DHT22;5150;51.400;6.692;2022-12-18T09:44:11;2.60;99.90
10213;DHT22;5150;51.400;6.692;2022-12-18T09:47:37;2.40;99.90
10213;DHT22;5150;51.400;6.692;2022-12-18T09:51:05;2.20;99.90
10213;DHT22;5150;51.400;6.692;2022-12-18T09:54:36;2.00;99.90
10213;DHT22;5150;51.400;6.692;2022-12-18T09:58:16;1.60;99.90
10213;DHT22;5150;51.400;6.692;2022-12-18T10:01:39;1.50;99.90
10213;DHT22;5150;51.400;6.692;2022-12-18T10:05:12;1.40;99.90
10213;DHT22;5150;51.400;6.692;2022-12-18T10:08:40;1.30;99.90
10213;DHT22;5150;51.400;6.692;2022-12-18T10:12:15;1.30;99.90
10213;DHT22;5150;51.400;6.692;2022-12-18T10:15:51;1.30;99.90
10213;DHT22;5150;51.400;6.692;2022-12-18T10:19:25;1.40;99.90
10213;DHT22;5150;51.400;6.692;2022-12-18T10:22:57;1.60;99.90
10213;DHT22;5150;51.400;6.692;2022-12-18T10:26:22;1.80;99.90
10213;DHT22;5150;51.400;6.692;2022-12-18T10:29:46;2.00;99.90
10213;DHT22;5150;51.400;6.692;2022-12-18T10:33:12;2.40;99.90
10213;DHT22;5150;51.400;6.692;2022-12-18T10:36:38;2.60;99.90
10213;DHT22;5150;51.400;6.692;2022-12-18T10:40:08;2.90;99.90
10213;DHT22;5150;51.400;6.692;2022-12-18T10:43:40;3.10;99.90
10213;DHT22;5150;51.400;6.692;2022-12-18T10:47:11;3.40;99.90
10213;DHT22;5150;51.400;6.692;2022-12-18T10:50:37;3.60;99.90
10213;DHT22;5150;51.400;6.692;2022-12-18T10:54:22;3.80;99.90
10213;DHT22;5150;51.400;6.692;2022-12-18T10:57:46;3.30;99.90
10213;DHT22;5150;51.400;6.692;2022-12-18T11:01:11;2.90;99.90
10213;DHT22;5150;51.400;6.692;2022-12-18T11:04:52;2.80;99.90
10213;DHT22;5150;51.400;6.692;2022-12-18T11:08:20;2.70;99.90
10213;DHT22;5150;51.400;6.692;2022-12-18T11:11:48;2.70;99.90
10213;DHT22;5150;51.400;6.692;2022-12-18T11:15:16;2.70;99.90
10213;DHT22;5150;51.400;6.692;2022-12-18T11:18:41;2.90;99.90
10213;DHT22;5150;51.400;6.692;2022-12-18T11:22:19;3.10;99.90
10213;DHT22;5150;51.400;6.692;2022-12-18T11:25:51;3.30;99.90
10213;DHT22;5150;51.400;6.692;2022-12-18T11:29:17;3.40;99.90
10213;DHT22;5150;51.400;6.692;2022-12-18T11:32:43;3.40;99.90
10213;DHT22;5150;51.400;6.692;2022-12-18T11:36:08;3.50;99.90
10213;DHT22;5150;51.400;6.692;2022-12-18T11:39:37;3.20;99.90
10213;DHT22;5150;51.400;6.692;2022-12-18T11:43:06;2.90;99.90
10213;DHT22;5150;51.400;6.692;2022-12-18T11:46:33;2.80;99.90
10213;DHT22;5150;51.400;6.692;2022-12-18T11:50:01;2.50;99.90
10213;DHT22;5150;51.400;6.692;2022-12-18T11:53:26;2.30;99.90
10213;DHT22;5150;51.400;6.692;2022-12-18T11:56:55;2.30;99.90
10213;DHT22;5150;51.400;6.692;2022-12-18T12:00:20;2.20;99.90
10213;DHT22;5150;51.400;6.692;2022-12-18T12:04:10;2.20;99.90
10213;DHT22;5150;51.400;6.692;2022-12-18T12:07:45;2.00;99.90
10213;DHT22;5150;51.400;6.692;2022-12-18T12:11:17;2.20;99.90
10213;DHT22;5150;51.400;6.692;2022-12-18T12:14:48;2.20;99.90
10213;DHT22;5150;51.400;6.692;2022-12-18T12:18:20;2.30;99.90
10213;DHT22;5150;51.400;6.692;2022-12-18T12:21:54;2.20;99.90
10213;DHT22;5150;51.400;6.692;2022-12-18T12:25:31;2.10;99.90
10213;DHT22;5150;51.400;6.692;2022-12-18T12:29:01;2.00;99.90
10213;DHT22;5150;51.400;6.692;2022-12-18T12:32:50;1.90;99.90
10213;DHT22;5150;51.400;6.692;2022-12-18T12:36:21;1.90;99.90
10213;DHT22;5150;51.400;6.692;2022-12-18T12:39:47;1.80;99.90
10213;DHT22;5150;51.400;6.692;2022-12-18T12:43:22;1.70;99.90
10213;DHT22;5150;51.400;6.692;2022-12-18T12:46:48;1.70;99.90
10213;DHT22;5150;51.400;6.692;2022-12-18T12:50:16;1.70;99.90
10213;DHT22;5150;51.400;6.692;2022-12-18T12:53:40;1.60;99.90
10213;DHT22;5150;51.400;6.692;2022-12-18T12:57:09;1.50;99.90
10213;DHT22;5150;51.400;6.692;2022-12-18T13:00:39;1.40;99.90
10213;DHT22;5150;51.400;6.692;2022-12-18T13:04:12;1.40;99.90
10213;DHT22;5150;51.400;6.692;2022-12-18T13:07:45;1.30;99.90
10213;DHT22;5150;51.400;6.692;2022-12-18T13:11:32;1.30;99.90
10213;DHT22;5150;51.400;6.692;2022-12-18T13:15:23;1.40;99.90
10213;DHT22;5150;51.400;6.692;2022-12-18T13:18:51;1.40;99.90
10213;DHT22;5150;51.400;6.692;2022-12-18T13:22:30;1.40;99.90
10213;DHT22;5150;51.400;6.692;2022-12-18T13:25:56;1.40;99.90
10213;DHT22;5150;51.400;6.692;2022-12-18T13:29:40;1.30;99.90
10213;DHT22;5150;51.400;6.692;2022-12-18T13:33:37;1.30;99.90
10213;DHT22;5150;51.400;6.692;2022-12-18T13:37:40;1.20;99.90
10213;DHT22;5150;51.400;6.692;2022-12-18T13:41:22;1.20;99.90
10213;DHT22;5150;51.400;6.692;2022-12-18T13:44:46;1.10;99.90
10213;DHT22;5150;51.400;6.692;2022-12-18T13:48:23;1.10;99.90
10213;DHT22;5150;51.400;6.692;2022-12-18T13:51:47;1.00;99.90
10213;DHT22;5150;51.400;6.692;2022-12-18T13:55:17;0.90;99.90
10213;DHT22;5150;51.400;6.692;2022-12-18T13:58:43;0.90;99.90
10213;DHT22;5150;51.400;6.692;2022-12-18T14:02:14;0.90;99.90
10213;DHT22;5150;51.400;6.692;2022-12-18T14:05:39;0.80;99.90
10213;DHT22;5150;51.400;6.692;2022-12-18T14:09:08;0.80;99.90
10213;DHT22;5150;51.400;6.692;2022-12-18T14:12:34;0.80;99.90
10213;DHT22;5150;51.400;6.692;2022-12-18T14:16:17;0.70;99.90
10213;DHT22;5150;51.400;6.692;2022-12-18T14:19:42;0.70;99.90
10213;DHT22;5150;51.400;6.692;2022-12-18T14:23:29;0.70;99.90
10213;DHT22;5150;51.400;6.692;2022-12-18T14:26:52;0.70;99.90
10213;DHT22;5150;51.400;6.692;2022-12-18T14:30:27;0.60;99.90
10213;DHT22;5150;51.400;6.692;2022-12-18T14:33:53;0.60;99.90
10213;DHT22;5150;51.400;6.692;2022-12-18T14:37:17;0.60;99.90
10213;DHT22;5150;51.400;6.692;2022-12-18T14:40:43;0.50;99.90
10213;DHT22;5150;51.400;6.692;2022-12-18T14:44:10;0.50;99.90
10213;DHT22;5150;51.400;6.692;2022-12-18T14:47:34;0.50;99.90
10213;DHT22;5150;51.400;6.692;2022-12-18T14:51:01;0.40;99.90
10213;DHT22;5150;51.400;6.692;2022-12-18T14:54:25;0.40;99.90
10213;DHT22;5150;51.400;6.692;2022-12-18T14:57:51;0.30;99.90
10213;DHT22;5150;51.400;6.692;2022-12-18T15:01:19;0.30;99.90
10213;DHT22;5150;51.400;6.692;2022-12-18T15:04:43;0.30;99.90
10213;DHT22;5150;51.400;6.692;2022-12-18T15:08:34;0.20;99.90
10213;DHT22;5150;51.400;6.692;2022-12-18T15:11:59;0.20;99.90
10213;DHT22;5150;51.400;6.692;2022-12-18T15:15:44;0.20;99.90
10213;DHT22;5150;51.400;6.692;2022-12-18T15:19:08;0.20;99.90
10213;DHT22;5150;51.400;6.692;2022-12-18T15:22:34;0.20;99.90
10213;DHT22;5150;51.400;6.692;2022-12-18T15:26:00;0.10;99.90
10213;DHT22;5150;51.400;6.692;2022-12-18T15:29:25;0.10;99.90
10213;DHT22;5150;51.400;6.692;2022-12-18T15:32:49;0.10;99.90
10213;DHT22;5150;51.400;6.692;2022-12-18T15:36:14;0.10;99.90
10213;DHT22;5150;51.400;6.692;2022-12-18T15:39:45;0.10;99.90
10213;DHT22;5150;51.400;6.692;2022-12-18T15:43:10;0.00;99.90
10213;DHT22;5150;51.400;6.692;2022-12-18T15:46:50;0.00;99.90
10213;DHT22;5150;51.400;6.692;2022-12-18T15:50:14;0.00;99.90
10213;DHT22;5150;51.400;6.692;2022-12-18T15:53:38;0.00;99.90
10213;DHT22;5150;51.400;6.692;2022-12-18T15:57:01;-0.10;99.90
10213;DHT22;5150;51.400;6.692;2022-12-18T16:00:43;-0.10;99.90
10213;DHT22;5150;51.400;6.692;2022-12-18T16:04:09;-0.10;99.90
10213;DHT22;5150;51.400;6.692;2022-12-18T16:07:33;-0.10;99.90
10213;DHT22;5150;51.400;6.692;2022-12-18T16:10:56;-0.10;99.90
10213;DHT22;5150;51.400;6.692;2022-12-18T16:14:21;-0.10;99.90
10213;DHT22;5150;51.400;6.692;2022-12-18T16:17:47;-0.10;99.90
10213;DHT22;5150;51.400;6.692;2022-12-18T16:21:10;-0.20;99.90
10213;DHT22;5150;51.400;6.692;2022-12-18T16:24:33;-0.20;99.90
10213;DHT22;5150;51.400;6.692;2022-12-18T16:27:57;-0.20;99.90
10213;DHT22;5150;51.400;6.692;2022-12-18T16:31:20;-0.20;99.90
10213;DHT22;5150;51.400;6.692;2022-12-18T16:34:45;-0.20;99.90
10213;DHT22;5150;51.400;6.692;2022-12-18T16:38:08;-0.20;99.90
10213;DHT22;5150;51.400;6.692;2022-12-18T16:41:32;-0.20;99.90
10213;DHT22;5150;51.400;6.692;2022-12-18T16:44:55;-0.30;99.90
10213;DHT22;5150;51.400;6.692;2022-12-18T16:48:18;-0.30;99.90
10213;DHT22;5150;51.400;6.692;2022-12-18T16:51:42;-0.30;99.90
10213;DHT22;5150;51.400;6.692;2022-12-18T16:55:06;-0.30;99.90
10213;DHT22;5150;51.400;6.692;2022-12-18T16:58:29;-0.30;99.90
10213;DHT22;5150;51.400;6.692;2022-12-18T17:01:52;-0.40;99.90
10213;DHT22;5150;51.400;6.692;2022-12-18T17:05:16;-0.40;99.90
10213;DHT22;5150;51.400;6.692;2022-12-18T17:08:40;-0.40;99.90
10213;DHT22;5150;51.400;6.692;2022-12-18T17:12:04;-0.40;99.90
10213;DHT22;5150;51.400;6.692;2022-12-18T17:15:27;-0.40;99.90
10213;DHT22;5150;51.400;6.692;2022-12-18T17:18:50;-0.40;99.90
10213;DHT22;5150;51.400;6.692;2022-12-18T17:22:14;-0.40;99.90
10213;DHT22;5150;51.400;6.692;2022-12-18T17:25:40;-0.40;99.90
10213;DHT22;5150;51.400;6.692;2022-12-18T17:29:03;-0.40;99.90
10213;DHT22;5150;51.400;6.692;2022-12-18T17:32:26;-0.40;99.90
10213;DHT22;5150;51.400;6.692;2022-12-18T17:35:49;-0.40;99.90
10213;DHT22;5150;51.400;6.692;2022-12-18T17:39:17;-0.40;99.90
10213;DHT22;5150;51.400;6.692;2022-12-18T17:42:42;-0.40;99.90
10213;DHT22;5150;51.400;6.692;2022-12-18T17:46:05;-0.40;99.90
10213;DHT22;5150;51.400;6.692;2022-12-18T17:49:31;-0.40;99.90
10213;DHT22;5150;51.400;6.692;2022-12-18T17:52:54;-0.50;99.90
10213;DHT22;5150;51.400;6.692;2022-12-18T17:56:19;-0.50;99.90
10213;DHT22;5150;51.400;6.692;2022-12-18T17:59:44;-0.50;99.90
10213;DHT22;5150;51.400;6.692;2022-12-18T18:03:07;-0.50;99.90
10213;DHT22;5150;51.400;6.692;2022-12-18T18:06:30;-0.50;99.90
10213;DHT22;5150;51.400;6.692;2022-12-18T18:09:55;-0.50;99.90
10213;DHT22;5150;51.400;6.692;2022-12-18T18:13:19;-0.50;99.90
10213;DHT22;5150;51.400;6.692;2022-12-18T18:17:09;-0.50;99.90
10213;DHT22;5150;51.400;6.692;2022-12-18T18:20:32;-0.60;99.90
10213;DHT22;5150;51.400;6.692;2022-12-18T18:23:58;-0.60;99.90
10213;DHT22;5150;51.400;6.692;2022-12-18T18:27:21;-0.60;99.90
10213;DHT22;5150;51.400;6.692;2022-12-18T18:30:44;-0.70;99.90
10213;DHT22;5150;51.400;6.692;2022-12-18T18:34:13;-0.70;99.90
10213;DHT22;5150;51.400;6.692;2022-12-18T18:37:36;-0.60;99.90
10213;DHT22;5150;51.400;6.692;2022-12-18T18:41:03;-0.70;99.90
10213;DHT22;5150;51.400;6.692;2022-12-18T18:44:27;-0.70;99.90
10213;DHT22;5150;51.400;6.692;2022-12-18T18:47:51;-0.70;99.90
10213;DHT22;5150;51.400;6.692;2022-12-18T18:51:16;-0.70;99.90
10213;DHT22;5150;51.400;6.692;2022-12-18T18:54:42;-0.70;99.90
10213;DHT22;5150;51.400;6.692;2022-12-18T18:58:25;-0.70;99.90
10213;DHT22;5150;51.400;6.692;2022-12-18T19:01:48;-0.60;99.90
10213;DHT22;5150;51.400;6.692;2022-12-18T19:05:13;-0.60;99.90
10213;DHT22;5150;51.400;6.692;2022-12-18T19:08:38;-0.70;99.90
10213;DHT22;5150;51.400;6.692;2022-12-18T19:12:01;-0.60;99.90
10213;DHT22;5150;51.400;6.692;2022-12-18T19:15:42;-0.60;99.90
10213;DHT22;5150;51.400;6.692;2022-12-18T19:19:07;-0.60;99.90
10213;DHT22;5150;51.400;6.692;2022-12-18T19:22:30;-0.60;99.90
10213;DHT22;5150;51.400;6.692;2022-12-18T19:25:54;-0.50;99.90
10213;DHT22;5150;51.400;6.692;2022-12-18T19:29:37;-0.50;99.90
10213;DHT22;5150;51.400;6.692;2022-12-18T19:33:00;-0.50;99.90
10213;DHT22;5150;51.400;6.692;2022-12-18T19:36:43;-0.40;99.90
10213;DHT22;5150;51.400;6.692;2022-12-18T19:40:07;-0.40;99.90
10213;DHT22;5150;51.400;6.692;2022-12-18T19:43:35;-0.40;99.90
10213;DHT22;5150;51.400;6.692;2022-12-18T19:46:58;-0.30;99.90
10213;DHT22;5150;51.400;6.692;2022-12-18T19:50:21;-0.30;99.90
10213;DHT22;5150;51.400;6.692;2022-12-18T19:53:44;-0.30;99.90
10213;DHT22;5150;51.400;6.692;2022-12-18T19:57:07;-0.30;99.90
10213;DHT22;5150;51.400;6.692;2022-12-18T20:00:33;-0.30;99.90
10213;DHT22;5150;51.400;6.692;2022-12-18T20:03:56;-0.20;99.90
10213;DHT22;5150;51.400;6.692;2022-12-18T20:07:21;-0.20;99.90
10213;DHT22;5150;51.400;6.692;2022-12-18T20:10:44;-0.20;99.90
10213;DHT22;5150;51.400;6.692;2022-12-18T20:14:10;-0.20;99.90
10213;DHT22;5150;51.400;6.692;2022-12-18T20:17:34;-0.10;99.90
10213;DHT22;5150;51.400;6.692;2022-12-18T20:20:57;-0.10;99.90
10213;DHT22;5150;51.400;6.692;2022-12-18T20:24:22;-0.10;99.90
10213;DHT22;5150;51.400;6.692;2022-12-18T20:27:45;-0.10;99.90
10213;DHT22;5150;51.400;6.692;2022-12-18T20:31:10;-0.20;99.90
10213;DHT22;5150;51.400;6.692;2022-12-18T20:34:36;-0.20;99.90
10213;DHT22;5150;51.400;6.692;2022-12-18T20:38:00;-0.30;99.90
10213;DHT22;5150;51.400;6.692;2022-12-18T20:41:23;-0.20;99.90
10213;DHT22;5150;51.400;6.692;2022-12-18T20:44:48;-0.20;99.90
10213;DHT22;5150;51.400;6.692;2022-12-18T20:48:11;-0.20;99.90
10213;DHT22;5150;51.400;6.692;2022-12-18T20:51:35;-0.20;99.90
10213;DHT22;5150;51.400;6.692;2022-12-18T20:54:59;-0.10;99.90
10213;DHT22;5150;51.400;6.692;2022-12-18T20:58:25;-0.10;99.90
10213;DHT22;5150;51.400;6.692;2022-12-18T21:01:48;-0.10;99.90
10213;DHT22;5150;51.400;6.692;2022-12-18T21:05:11;-0.10;99.90
10213;DHT22;5150;51.400;6.692;2022-12-18T21:08:35;-0.20;99.90
10213;DHT22;5150;51.400;6.692;2022-12-18T21:11:58;-0.30;99.90
10213;DHT22;5150;51.400;6.692;2022-12-18T21:15:39;-0.40;99.90
10213;DHT22;5150;51.400;6.692;2022-12-18T21:19:02;-0.40;99.90
10213;DHT22;5150;51.400;6.692;2022-12-18T21:22:25;-0.40;99.90
10213;DHT22;5150;51.400;6.692;2022-12-18T21:25:50;-0.30;99.90
10213;DHT22;5150;51.400;6.692;2022-12-18T21:29:19;-0.30;99.90
10213;DHT22;5150;51.400;6.692;2022-12-18T21:32:42;-0.20;99.90
10213;DHT22;5150;51.400;6.692;2022-12-18T21:36:06;-0.20;99.90
10213;DHT22;5150;51.400;6.692;2022-12-18T21:39:29;-0.10;99.90
10213;DHT22;5150;51.400;6.692;2022-12-18T21:42:54;-0.10;99.90
10213;DHT22;5150;51.400;6.692;2022-12-18T21:46:40;-0.10;99.90
10213;DHT22;5150;51.400;6.692;2022-12-18T21:50:04;-0.10;99.90
10213;DHT22;5150;51.400;6.692;2022-12-18T21:53:27;-0.10;99.90
10213;DHT22;5150;51.400;6.692;2022-12-18T21:56:52;-0.10;99.90
10213;DHT22;5150;51.400;6.692;2022-12-18T22:00:17;-0.20;99.90
10213;DHT22;5150;51.400;6.692;2022-12-18T22:03:43;-0.30;99.90
10213;DHT22;5150;51.400;6.692;2022-12-18T22:07:07;-0.40;99.90
10213;DHT22;5150;51.400;6.692;2022-12-18T22:10:32;-0.40;99.90
10213;DHT22;5150;51.400;6.692;2022-12-18T22:13:55;-0.40;99.90